This is the latest recevied weather packets stored in our database for station/object DM4XI-13. If no packets are shown the sender has not sent any weather packets the latest 10 day(s).
| Time | Temp. | Humidity | Pressure | Rain* | Wind** | Luminosity | Snow |
|---|---|---|---|---|---|---|---|
| 1777643882 | 21.67° C | 32% | 1023.9 hPa | 0 mm | 0.45 m/s, 143° | 456 W/m² | - |
| 1777643821 | 21.67° C | 33% | 1023.8 hPa | 0 mm | 0 m/s | 458 W/m² | - |
| 1777643760 | 21.67° C | 32% | 1023.8 hPa | 0 mm | 0 m/s | 460 W/m² | - |
| 1777643699 | 22.22° C | 31% | 1023.7 hPa | 0 mm | 1.79 m/s, 78° | 463 W/m² | - |
| 1777643638 | 22.22° C | 31% | 1023.9 hPa | 0 mm | 0.89 m/s, 100° | 465 W/m² | - |
| 1777643578 | 22.78° C | 31% | 1023.8 hPa | 0 mm | 1.34 m/s, 102° | 467 W/m² | - |
| 1777643516 | 22.78° C | 32% | 1023.9 hPa | 0 mm | 0.89 m/s, 129° | 469 W/m² | - |
| 1777643455 | 22.78° C | 31% | 1023.9 hPa | 0 mm | 0.89 m/s, 149° | 470 W/m² | - |
| 1777643394 | 22.78° C | 31% | 1023.9 hPa | 0 mm | 0.89 m/s, 171° | 473 W/m² | - |
| 1777643333 | 22.22° C | 31% | 1023.8 hPa | 0 mm | 0.45 m/s, 188° | 473 W/m² | - |
| 1777643272 | 22.22° C | 31% | 1023.9 hPa | 0 mm | 1.79 m/s, 4° | 476 W/m² | - |
| 1777643211 | 22.22° C | 31% | 1023.9 hPa | 0 mm | 0.45 m/s, 335° | 477 W/m² | - |
| 1777643150 | 22.22° C | 31% | 1024.1 hPa | 0 mm | 0 m/s | 478 W/m² | - |
| 1777643089 | 22.22° C | 31% | 1023.9 hPa | 0 mm | 0.89 m/s, 140° | 480 W/m² | - |
| 1777643028 | 22.22° C | 31% | 1024.1 hPa | 0 mm | 0.45 m/s, 205° | 483 W/m² | - |
| 1777642967 | 21.67° C | 31% | 1024 hPa | 0 mm | 0.45 m/s, 189° | 485 W/m² | - |
| 1777642906 | 21.67° C | 33% | 1024.1 hPa | 0 mm | 0.89 m/s, 149° | 487 W/m² | - |
| 1777642845 | 21.67° C | 33% | 1024.1 hPa | 0 mm | 0.89 m/s, 328° | 489 W/m² | - |
| 1777642784 | 21.67° C | 34% | 1023.9 hPa | 0 mm | 0.45 m/s, 185° | 490 W/m² | - |
| 1777642723 | 21.11° C | 32% | 1023.9 hPa | 0 mm | 0.45 m/s, 19° | 492 W/m² | - |
| 1777642662 | 21.11° C | 33% | 1024 hPa | 0 mm | 0.89 m/s, 36° | 495 W/m² | - |
| 1777642601 | 20.56° C | 32% | 1024 hPa | 0 mm | 0.45 m/s, 291° | 497 W/m² | - |
| 1777642540 | 20.56° C | 32% | 1024 hPa | 0 mm | 0 m/s | 498 W/m² | - |
| 1777642479 | 20.56° C | 33% | 1023.9 hPa | 0 mm | 0 m/s | 499 W/m² | - |
| 1777642418 | 20.56° C | 32% | 1024.1 hPa | 0 mm | 0.45 m/s, 153° | 502 W/m² | - |
* Rain latest hour (hover to see other rain measurements)
** Current wind speed in m/s (hover to see current wind gust speed)